sensor_id;sensor_type;location;lat;lon;timestamp;P1;durP1;ratioP1;P2;durP2;ratioP2
20972;SDS011;10645;52.370;13.314;2023-08-08T00:01:39;2.63;;;1.38;;
20972;SDS011;10645;52.370;13.314;2023-08-08T00:04:08;0.55;;;0.55;;
20972;SDS011;10645;52.370;13.314;2023-08-08T00:06:35;1.17;;;0.70;;
20972;SDS011;10645;52.370;13.314;2023-08-08T00:09:02;0.93;;;0.90;;
20972;SDS011;10645;52.370;13.314;2023-08-08T00:11:29;1.13;;;0.52;;
20972;SDS011;10645;52.370;13.314;2023-08-08T00:13:56;0.70;;;0.57;;
20972;SDS011;10645;52.370;13.314;2023-08-08T00:16:22;0.93;;;0.57;;
20972;SDS011;10645;52.370;13.314;2023-08-08T00:18:49;1.15;;;0.65;;
20972;SDS011;10645;52.370;13.314;2023-08-08T00:21:16;0.55;;;0.47;;
20972;SDS011;10645;52.370;13.314;2023-08-08T00:23:42;1.23;;;1.13;;
20972;SDS011;10645;52.370;13.314;2023-08-08T00:26:08;0.85;;;0.70;;
20972;SDS011;10645;52.370;13.314;2023-08-08T00:28:34;5.07;;;0.52;;
20972;SDS011;10645;52.370;13.314;2023-08-08T00:31:00;0.43;;;0.43;;
20972;SDS011;10645;52.370;13.314;2023-08-08T00:33:26;7.43;;;0.95;;
20972;SDS011;10645;52.370;13.314;2023-08-08T00:35:52;0.52;;;0.52;;
20972;SDS011;10645;52.370;13.314;2023-08-08T00:38:19;1.45;;;0.85;;
20972;SDS011;10645;52.370;13.314;2023-08-08T00:40:45;1.58;;;0.90;;
20972;SDS011;10645;52.370;13.314;2023-08-08T00:43:11;1.08;;;0.57;;
20972;SDS011;10645;52.370;13.314;2023-08-08T00:45:38;1.05;;;0.50;;
20972;SDS011;10645;52.370;13.314;2023-08-08T00:48:07;0.98;;;0.95;;
20972;SDS011;10645;52.370;13.314;2023-08-08T00:50:33;0.88;;;0.88;;
20972;SDS011;10645;52.370;13.314;2023-08-08T00:53:02;0.52;;;0.52;;
20972;SDS011;10645;52.370;13.314;2023-08-08T00:55:30;0.80;;;0.45;;
20972;SDS011;10645;52.370;13.314;2023-08-08T00:57:56;2.95;;;1.00;;
20972;SDS011;10645;52.370;13.314;2023-08-08T01:00:22;0.60;;;0.60;;
20972;SDS011;10645;52.370;13.314;2023-08-08T01:02:48;0.85;;;0.30;;
20972;SDS011;10645;52.370;13.314;2023-08-08T01:05:15;1.58;;;0.60;;
20972;SDS011;10645;52.370;13.314;2023-08-08T01:08:02;1.52;;;1.42;;
20972;SDS011;10645;52.370;13.314;2023-08-08T01:10:34;0.50;;;0.50;;
20972;SDS011;10645;52.370;13.314;2023-08-08T01:13:08;0.65;;;0.65;;
20972;SDS011;10645;52.370;13.314;2023-08-08T01:15:39;0.73;;;0.63;;
20972;SDS011;10645;52.370;13.314;2023-08-08T01:18:07;0.80;;;0.80;;
20972;SDS011;10645;52.370;13.314;2023-08-08T01:20:34;2.03;;;0.90;;
20972;SDS011;10645;52.370;13.314;2023-08-08T01:25:43;0.50;;;0.50;;
20972;SDS011;10645;52.370;13.314;2023-08-08T01:28:09;0.88;;;0.88;;
20972;SDS011;10645;52.370;13.314;2023-08-08T01:30:35;0.55;;;0.55;;
20972;SDS011;10645;52.370;13.314;2023-08-08T01:33:02;1.00;;;0.90;;
20972;SDS011;10645;52.370;13.314;2023-08-08T01:35:29;0.82;;;0.63;;
20972;SDS011;10645;52.370;13.314;2023-08-08T01:38:03;0.50;;;0.50;;
20972;SDS011;10645;52.370;13.314;2023-08-08T01:40:37;0.60;;;0.52;;
20972;SDS011;10645;52.370;13.314;2023-08-08T01:43:04;1.58;;;0.40;;
20972;SDS011;10645;52.370;13.314;2023-08-08T01:45:31;7.40;;;1.08;;
20972;SDS011;10645;52.370;13.314;2023-08-08T01:47:57;0.40;;;0.40;;
20972;SDS011;10645;52.370;13.314;2023-08-08T01:50:23;1.85;;;1.23;;
20972;SDS011;10645;52.370;13.314;2023-08-08T01:52:51;1.27;;;1.23;;
20972;SDS011;10645;52.370;13.314;2023-08-08T01:55:19;0.43;;;0.43;;
20972;SDS011;10645;52.370;13.314;2023-08-08T01:57:45;1.73;;;0.70;;
20972;SDS011;10645;52.370;13.314;2023-08-08T02:00:11;0.47;;;0.35;;
20972;SDS011;10645;52.370;13.314;2023-08-08T02:02:43;2.25;;;0.52;;
20972;SDS011;10645;52.370;13.314;2023-08-08T02:05:10;0.75;;;0.75;;
20972;SDS011;10645;52.370;13.314;2023-08-08T02:07:36;0.68;;;0.63;;
20972;SDS011;10645;52.370;13.314;2023-08-08T02:10:03;0.40;;;0.38;;
20972;SDS011;10645;52.370;13.314;2023-08-08T02:12:29;1.52;;;0.50;;
20972;SDS011;10645;52.370;13.314;2023-08-08T02:14:56;0.22;;;0.22;;
20972;SDS011;10645;52.370;13.314;2023-08-08T02:17:22;0.98;;;0.65;;
20972;SDS011;10645;52.370;13.314;2023-08-08T02:19:48;3.08;;;0.98;;
20972;SDS011;10645;52.370;13.314;2023-08-08T02:22:14;0.93;;;0.82;;
20972;SDS011;10645;52.370;13.314;2023-08-08T02:24:41;1.45;;;0.40;;
20972;SDS011;10645;52.370;13.314;2023-08-08T02:27:07;0.55;;;0.55;;
20972;SDS011;10645;52.370;13.314;2023-08-08T02:29:33;2.72;;;0.82;;
20972;SDS011;10645;52.370;13.314;2023-08-08T02:32:00;14.60;;;1.17;;
20972;SDS011;10645;52.370;13.314;2023-08-08T02:34:26;0.43;;;0.43;;
20972;SDS011;10645;52.370;13.314;2023-08-08T02:36:52;0.25;;;0.25;;
20972;SDS011;10645;52.370;13.314;2023-08-08T02:39:18;0.20;;;0.20;;
20972;SDS011;10645;52.370;13.314;2023-08-08T02:41:44;1.08;;;0.75;;
20972;SDS011;10645;52.370;13.314;2023-08-08T02:44:11;0.95;;;0.95;;
20972;SDS011;10645;52.370;13.314;2023-08-08T02:46:37;0.38;;;0.30;;
20972;SDS011;10645;52.370;13.314;2023-08-08T02:49:05;1.00;;;1.00;;
20972;SDS011;10645;52.370;13.314;2023-08-08T02:51:31;0.50;;;0.50;;
20972;SDS011;10645;52.370;13.314;2023-08-08T02:53:57;10.57;;;1.55;;
20972;SDS011;10645;52.370;13.314;2023-08-08T02:56:23;3.08;;;0.98;;
20972;SDS011;10645;52.370;13.314;2023-08-08T02:58:51;0.60;;;0.60;;
20972;SDS011;10645;52.370;13.314;2023-08-08T03:01:17;0.60;;;0.50;;
20972;SDS011;10645;52.370;13.314;2023-08-08T03:03:46;1.67;;;0.77;;
20972;SDS011;10645;52.370;13.314;2023-08-08T03:06:13;10.15;;;1.02;;
20972;SDS011;10645;52.370;13.314;2023-08-08T03:08:39;4.57;;;0.65;;
20972;SDS011;10645;52.370;13.314;2023-08-08T03:11:06;0.95;;;0.80;;
20972;SDS011;10645;52.370;13.314;2023-08-08T03:13:32;3.30;;;1.70;;
20972;SDS011;10645;52.370;13.314;2023-08-08T03:15:59;1.63;;;0.93;;
20972;SDS011;10645;52.370;13.314;2023-08-08T03:18:25;0.35;;;0.35;;
20972;SDS011;10645;52.370;13.314;2023-08-08T03:20:52;0.73;;;0.60;;
20972;SDS011;10645;52.370;13.314;2023-08-08T03:23:18;0.82;;;0.80;;
20972;SDS011;10645;52.370;13.314;2023-08-08T03:25:45;0.57;;;0.57;;
20972;SDS011;10645;52.370;13.314;2023-08-08T03:28:13;1.55;;;0.82;;
20972;SDS011;10645;52.370;13.314;2023-08-08T03:30:39;0.82;;;0.82;;
20972;SDS011;10645;52.370;13.314;2023-08-08T03:33:07;0.32;;;0.20;;
20972;SDS011;10645;52.370;13.314;2023-08-08T03:35:33;2.15;;;1.23;;
20972;SDS011;10645;52.370;13.314;2023-08-08T03:38:00;2.45;;;1.13;;
20972;SDS011;10645;52.370;13.314;2023-08-08T03:40:28;3.25;;;1.75;;
20972;SDS011;10645;52.370;13.314;2023-08-08T03:42:54;1.75;;;1.58;;
20972;SDS011;10645;52.370;13.314;2023-08-08T03:45:20;8.45;;;7.40;;
20972;SDS011;10645;52.370;13.314;2023-08-08T03:47:46;21.25;;;14.50;;
20972;SDS011;10645;52.370;13.314;2023-08-08T03:50:12;26.67;;;15.23;;
20972;SDS011;10645;52.370;13.314;2023-08-08T03:52:38;5.47;;;4.10;;
20972;SDS011;10645;52.370;13.314;2023-08-08T03:55:09;10.90;;;7.93;;
20972;SDS011;10645;52.370;13.314;2023-08-08T03:57:37;21.30;;;14.98;;
20972;SDS011;10645;52.370;13.314;2023-08-08T04:00:03;10.57;;;8.35;;
20972;SDS011;10645;52.370;13.314;2023-08-08T04:02:38;6.15;;;5.43;;
20972;SDS011;10645;52.370;13.314;2023-08-08T04:05:05;0.93;;;0.70;;
20972;SDS011;10645;52.370;13.314;2023-08-08T04:07:31;0.75;;;0.75;;
20972;SDS011;10645;52.370;13.314;2023-08-08T04:09:58;0.50;;;0.50;;
20972;SDS011;10645;52.370;13.314;2023-08-08T04:12:24;1.33;;;1.08;;
20972;SDS011;10645;52.370;13.314;2023-08-08T04:14:50;2.45;;;0.70;;
20972;SDS011;10645;52.370;13.314;2023-08-08T04:17:16;1.42;;;1.02;;
20972;SDS011;10645;52.370;13.314;2023-08-08T04:19:42;0.73;;;0.73;;
20972;SDS011;10645;52.370;13.314;2023-08-08T04:22:08;0.93;;;0.70;;
20972;SDS011;10645;52.370;13.314;2023-08-08T04:24:34;0.65;;;0.50;;
20972;SDS011;10645;52.370;13.314;2023-08-08T04:27:00;1.77;;;1.02;;
20972;SDS011;10645;52.370;13.314;2023-08-08T04:29:26;1.95;;;0.90;;
20972;SDS011;10645;52.370;13.314;2023-08-08T04:31:52;3.80;;;2.03;;
20972;SDS011;10645;52.370;13.314;2023-08-08T04:34:18;1.52;;;1.42;;
20972;SDS011;10645;52.370;13.314;2023-08-08T04:36:45;1.95;;;1.00;;
20972;SDS011;10645;52.370;13.314;2023-08-08T04:39:11;0.57;;;0.57;;
20972;SDS011;10645;52.370;13.314;2023-08-08T04:41:37;0.60;;;0.50;;
20972;SDS011;10645;52.370;13.314;2023-08-08T04:44:03;1.00;;;0.93;;
20972;SDS011;10645;52.370;13.314;2023-08-08T04:46:29;2.85;;;1.17;;
20972;SDS011;10645;52.370;13.314;2023-08-08T04:48:55;1.33;;;1.00;;
20972;SDS011;10645;52.370;13.314;2023-08-08T04:51:21;1.02;;;0.82;;
20972;SDS011;10645;52.370;13.314;2023-08-08T04:53:47;2.10;;;1.95;;
20972;SDS011;10645;52.370;13.314;2023-08-08T04:56:13;0.77;;;0.70;;
20972;SDS011;10645;52.370;13.314;2023-08-08T04:58:39;0.43;;;0.43;;
20972;SDS011;10645;52.370;13.314;2023-08-08T05:01:05;1.40;;;1.30;;
20972;SDS011;10645;52.370;13.314;2023-08-08T05:03:34;1.02;;;0.88;;
20972;SDS011;10645;52.370;13.314;2023-08-08T05:06:00;0.60;;;0.50;;
20972;SDS011;10645;52.370;13.314;2023-08-08T05:08:27;1.10;;;0.80;;
20972;SDS011;10645;52.370;13.314;2023-08-08T05:10:53;1.23;;;0.82;;
20972;SDS011;10645;52.370;13.314;2023-08-08T05:13:19;0.73;;;0.70;;
20972;SDS011;10645;52.370;13.314;2023-08-08T05:15:45;1.50;;;1.40;;
20972;SDS011;10645;52.370;13.314;2023-08-08T05:18:11;0.93;;;0.75;;
20972;SDS011;10645;52.370;13.314;2023-08-08T05:20:37;0.85;;;0.60;;
20972;SDS011;10645;52.370;13.314;2023-08-08T05:23:04;1.20;;;0.98;;
20972;SDS011;10645;52.370;13.314;2023-08-08T05:25:30;1.55;;;0.68;;
20972;SDS011;10645;52.370;13.314;2023-08-08T05:27:56;0.70;;;0.70;;
20972;SDS011;10645;52.370;13.314;2023-08-08T05:30:22;1.13;;;0.95;;
20972;SDS011;10645;52.370;13.314;2023-08-08T05:32:48;0.60;;;0.45;;
20972;SDS011;10645;52.370;13.314;2023-08-08T05:35:14;0.50;;;0.50;;
20972;SDS011;10645;52.370;13.314;2023-08-08T05:37:40;0.50;;;0.50;;
20972;SDS011;10645;52.370;13.314;2023-08-08T05:40:06;2.35;;;1.15;;
20972;SDS011;10645;52.370;13.314;2023-08-08T05:42:33;0.57;;;0.57;;
20972;SDS011;10645;52.370;13.314;2023-08-08T05:44:59;0.88;;;0.88;;
20972;SDS011;10645;52.370;13.314;2023-08-08T05:47:25;0.73;;;0.73;;
20972;SDS011;10645;52.370;13.314;2023-08-08T05:49:51;0.40;;;0.40;;
20972;SDS011;10645;52.370;13.314;2023-08-08T05:52:17;2.33;;;1.13;;
20972;SDS011;10645;52.370;13.314;2023-08-08T05:54:43;1.30;;;1.20;;
20972;SDS011;10645;52.370;13.314;2023-08-08T05:57:09;0.93;;;0.90;;
20972;SDS011;10645;52.370;13.314;2023-08-08T05:59:35;0.68;;;0.68;;
20972;SDS011;10645;52.370;13.314;2023-08-08T06:02:01;0.88;;;0.47;;
20972;SDS011;10645;52.370;13.314;2023-08-08T06:04:27;1.67;;;1.58;;
20972;SDS011;10645;52.370;13.314;2023-08-08T06:06:54;1.80;;;0.95;;
20972;SDS011;10645;52.370;13.314;2023-08-08T06:09:20;0.60;;;0.50;;
20972;SDS011;10645;52.370;13.314;2023-08-08T06:11:46;1.83;;;1.23;;
20972;SDS011;10645;52.370;13.314;2023-08-08T06:14:12;2.70;;;1.35;;
20972;SDS011;10645;52.370;13.314;2023-08-08T06:16:38;1.35;;;1.02;;
20972;SDS011;10645;52.370;13.314;2023-08-08T06:19:04;1.25;;;0.85;;
20972;SDS011;10645;52.370;13.314;2023-08-08T06:21:30;0.57;;;0.43;;
20972;SDS011;10645;52.370;13.314;2023-08-08T06:23:56;0.60;;;0.60;;
20972;SDS011;10645;52.370;13.314;2023-08-08T06:26:23;1.60;;;1.13;;
20972;SDS011;10645;52.370;13.314;2023-08-08T06:28:49;1.05;;;1.00;;
20972;SDS011;10645;52.370;13.314;2023-08-08T06:31:17;3.90;;;1.65;;
20972;SDS011;10645;52.370;13.314;2023-08-08T06:33:44;1.08;;;0.73;;
20972;SDS011;10645;52.370;13.314;2023-08-08T06:36:10;0.50;;;0.50;;
20972;SDS011;10645;52.370;13.314;2023-08-08T06:38:36;0.60;;;0.57;;
20972;SDS011;10645;52.370;13.314;2023-08-08T06:41:02;1.75;;;1.25;;
20972;SDS011;10645;52.370;13.314;2023-08-08T06:43:29;6.53;;;1.10;;
20972;SDS011;10645;52.370;13.314;2023-08-08T06:45:55;0.88;;;0.88;;
20972;SDS011;10645;52.370;13.314;2023-08-08T06:48:22;1.13;;;1.10;;
20972;SDS011;10645;52.370;13.314;2023-08-08T06:50:48;1.10;;;0.60;;
20972;SDS011;10645;52.370;13.314;2023-08-08T06:53:14;0.77;;;0.77;;
20972;SDS011;10645;52.370;13.314;2023-08-08T06:55:41;1.30;;;1.20;;
20972;SDS011;10645;52.370;13.314;2023-08-08T06:58:07;0.50;;;0.50;;
20972;SDS011;10645;52.370;13.314;2023-08-08T07:00:33;0.75;;;0.75;;
20972;SDS011;10645;52.370;13.314;2023-08-08T07:02:59;1.98;;;0.93;;
20972;SDS011;10645;52.370;13.314;2023-08-08T07:05:25;1.00;;;0.85;;
20972;SDS011;10645;52.370;13.314;2023-08-08T07:07:51;1.17;;;0.85;;
20972;SDS011;10645;52.370;13.314;2023-08-08T07:10:18;1.23;;;0.68;;
20972;SDS011;10645;52.370;13.314;2023-08-08T07:12:45;1.38;;;1.27;;
20972;SDS011;10645;52.370;13.314;2023-08-08T07:15:11;0.50;;;0.50;;
20972;SDS011;10645;52.370;13.314;2023-08-08T07:17:38;2.47;;;0.98;;
20972;SDS011;10645;52.370;13.314;2023-08-08T07:20:04;0.88;;;0.88;;
20972;SDS011;10645;52.370;13.314;2023-08-08T07:22:31;1.40;;;0.82;;
20972;SDS011;10645;52.370;13.314;2023-08-08T07:24:58;0.40;;;0.40;;
20972;SDS011;10645;52.370;13.314;2023-08-08T07:27:26;3.33;;;1.30;;
20972;SDS011;10645;52.370;13.314;2023-08-08T07:29:52;0.63;;;0.63;;
20972;SDS011;10645;52.370;13.314;2023-08-08T07:32:18;1.17;;;0.85;;
20972;SDS011;10645;52.370;13.314;2023-08-08T07:34:44;1.67;;;1.55;;
20972;SDS011;10645;52.370;13.314;2023-08-08T07:37:10;2.88;;;0.68;;
20972;SDS011;10645;52.370;13.314;2023-08-08T07:39:36;1.70;;;0.80;;
20972;SDS011;10645;52.370;13.314;2023-08-08T07:42:03;1.80;;;1.08;;
20972;SDS011;10645;52.370;13.314;2023-08-08T07:44:29;0.40;;;0.38;;
20972;SDS011;10645;52.370;13.314;2023-08-08T07:46:57;1.10;;;1.10;;
20972;SDS011;10645;52.370;13.314;2023-08-08T07:49:23;3.70;;;1.48;;
20972;SDS011;10645;52.370;13.314;2023-08-08T07:51:49;0.68;;;0.68;;
20972;SDS011;10645;52.370;13.314;2023-08-08T07:54:15;1.08;;;1.08;;
20972;SDS011;10645;52.370;13.314;2023-08-08T07:56:41;2.45;;;0.70;;
20972;SDS011;10645;52.370;13.314;2023-08-08T07:59:08;1.05;;;1.00;;
20972;SDS011;10645;52.370;13.314;2023-08-08T08:01:34;1.35;;;1.25;;
20972;SDS011;10645;52.370;13.314;2023-08-08T08:04:00;0.82;;;0.82;;
20972;SDS011;10645;52.370;13.314;2023-08-08T08:06:28;1.75;;;0.77;;
20972;SDS011;10645;52.370;13.314;2023-08-08T08:08:54;2.80;;;1.05;;
20972;SDS011;10645;52.370;13.314;2023-08-08T08:11:20;1.48;;;1.20;;
20972;SDS011;10645;52.370;13.314;2023-08-08T08:13:46;0.98;;;0.82;;
20972;SDS011;10645;52.370;13.314;2023-08-08T08:16:12;0.85;;;0.85;;
20972;SDS011;10645;52.370;13.314;2023-08-08T08:18:38;0.60;;;0.60;;
20972;SDS011;10645;52.370;13.314;2023-08-08T08:21:04;5.13;;;1.35;;
20972;SDS011;10645;52.370;13.314;2023-08-08T08:23:30;1.02;;;0.77;;
20972;SDS011;10645;52.370;13.314;2023-08-08T08:25:58;0.85;;;0.80;;
20972;SDS011;10645;52.370;13.314;2023-08-08T08:28:25;0.70;;;0.70;;
20972;SDS011;10645;52.370;13.314;2023-08-08T08:30:51;1.05;;;0.95;;
20972;SDS011;10645;52.370;13.314;2023-08-08T08:33:17;1.15;;;0.77;;
20972;SDS011;10645;52.370;13.314;2023-08-08T08:35:43;0.77;;;0.77;;
20972;SDS011;10645;52.370;13.314;2023-08-08T08:38:11;1.20;;;1.08;;
20972;SDS011;10645;52.370;13.314;2023-08-08T08:40:40;1.05;;;0.77;;
20972;SDS011;10645;52.370;13.314;2023-08-08T08:43:07;0.47;;;0.47;;
20972;SDS011;10645;52.370;13.314;2023-08-08T08:45:36;1.02;;;1.02;;
20972;SDS011;10645;52.370;13.314;2023-08-08T08:48:04;2.33;;;0.82;;
20972;SDS011;10645;52.370;13.314;2023-08-08T08:50:35;1.75;;;1.17;;
20972;SDS011;10645;52.370;13.314;2023-08-08T08:53:02;0.88;;;0.88;;
20972;SDS011;10645;52.370;13.314;2023-08-08T08:55:30;10.73;;;0.98;;
20972;SDS011;10645;52.370;13.314;2023-08-08T08:57:56;0.82;;;0.82;;
20972;SDS011;10645;52.370;13.314;2023-08-08T09:00:22;1.55;;;0.57;;
20972;SDS011;10645;52.370;13.314;2023-08-08T09:02:50;0.80;;;0.80;;
20972;SDS011;10645;52.370;13.314;2023-08-08T09:05:17;1.25;;;0.90;;
20972;SDS011;10645;52.370;13.314;2023-08-08T09:07:47;0.85;;;0.75;;
20972;SDS011;10645;52.370;13.314;2023-08-08T09:10:15;0.63;;;0.50;;
20972;SDS011;10645;52.370;13.314;2023-08-08T09:12:42;1.10;;;1.00;;
20972;SDS011;10645;52.370;13.314;2023-08-08T09:15:08;1.63;;;1.52;;
20972;SDS011;10645;52.370;13.314;2023-08-08T09:17:35;2.22;;;0.75;;
20972;SDS011;10645;52.370;13.314;2023-08-08T09:20:05;1.98;;;1.27;;
20972;SDS011;10645;52.370;13.314;2023-08-08T09:22:32;1.20;;;1.10;;
20972;SDS011;10645;52.370;13.314;2023-08-08T09:24:58;0.85;;;0.85;;
20972;SDS011;10645;52.370;13.314;2023-08-08T09:27:24;0.60;;;0.40;;
20972;SDS011;10645;52.370;13.314;2023-08-08T09:29:53;0.80;;;0.80;;
20972;SDS011;10645;52.370;13.314;2023-08-08T09:32:19;1.08;;;1.08;;
20972;SDS011;10645;52.370;13.314;2023-08-08T09:34:46;0.93;;;0.85;;
20972;SDS011;10645;52.370;13.314;2023-08-08T09:37:12;0.75;;;0.75;;
20972;SDS011;10645;52.370;13.314;2023-08-08T09:39:39;1.58;;;1.15;;
20972;SDS011;10645;52.370;13.314;2023-08-08T09:42:08;4.63;;;1.10;;
20972;SDS011;10645;52.370;13.314;2023-08-08T09:44:37;2.13;;;0.63;;
20972;SDS011;10645;52.370;13.314;2023-08-08T09:47:03;0.70;;;0.70;;
20972;SDS011;10645;52.370;13.314;2023-08-08T09:49:29;0.90;;;0.63;;
20972;SDS011;10645;52.370;13.314;2023-08-08T09:51:57;0.98;;;0.80;;
20972;SDS011;10645;52.370;13.314;2023-08-08T09:54:24;0.85;;;0.85;;
20972;SDS011;10645;52.370;13.314;2023-08-08T09:56:50;3.50;;;1.23;;
20972;SDS011;10645;52.370;13.314;2023-08-08T09:59:17;5.30;;;1.42;;
20972;SDS011;10645;52.370;13.314;2023-08-08T10:01:43;0.63;;;0.63;;
20972;SDS011;10645;52.370;13.314;2023-08-08T10:04:12;1.15;;;0.90;;
20972;SDS011;10645;52.370;13.314;2023-08-08T10:06:38;4.82;;;1.73;;
20972;SDS011;10645;52.370;13.314;2023-08-08T10:09:04;0.70;;;0.70;;
20972;SDS011;10645;52.370;13.314;2023-08-08T10:11:30;2.08;;;1.10;;
20972;SDS011;10645;52.370;13.314;2023-08-08T10:14:00;1.15;;;0.93;;
20972;SDS011;10645;52.370;13.314;2023-08-08T10:16:27;1.05;;;0.98;;
20972;SDS011;10645;52.370;13.314;2023-08-08T10:19:00;1.77;;;1.13;;
20972;SDS011;10645;52.370;13.314;2023-08-08T10:21:31;1.10;;;1.00;;
20972;SDS011;10645;52.370;13.314;2023-08-08T10:24:03;0.85;;;0.85;;
20972;SDS011;10645;52.370;13.314;2023-08-08T10:26:31;0.77;;;0.77;;
20972;SDS011;10645;52.370;13.314;2023-08-08T10:28:57;1.45;;;1.20;;
20972;SDS011;10645;52.370;13.314;2023-08-08T10:31:25;2.22;;;0.85;;
20972;SDS011;10645;52.370;13.314;2023-08-08T10:34:02;1.33;;;1.23;;
20972;SDS011;10645;52.370;13.314;2023-08-08T10:36:42;0.80;;;0.80;;
20972;SDS011;10645;52.370;13.314;2023-08-08T10:39:18;0.70;;;0.70;;
20972;SDS011;10645;52.370;13.314;2023-08-08T10:41:47;1.35;;;1.20;;
20972;SDS011;10645;52.370;13.314;2023-08-08T10:44:22;1.10;;;1.10;;
20972;SDS011;10645;52.370;13.314;2023-08-08T10:46:52;1.30;;;0.85;;
20972;SDS011;10645;52.370;13.314;2023-08-08T10:49:19;1.13;;;1.02;;
20972;SDS011;10645;52.370;13.314;2023-08-08T10:51:46;3.75;;;1.00;;
20972;SDS011;10645;52.370;13.314;2023-08-08T10:54:17;5.85;;;1.25;;
20972;SDS011;10645;52.370;13.314;2023-08-08T10:56:52;1.52;;;1.42;;
20972;SDS011;10645;52.370;13.314;2023-08-08T10:59:21;1.50;;;1.40;;
20972;SDS011;10645;52.370;13.314;2023-08-08T11:01:49;1.35;;;1.25;;
20972;SDS011;10645;52.370;13.314;2023-08-08T11:04:20;0.77;;;0.75;;
20972;SDS011;10645;52.370;13.314;2023-08-08T11:06:49;1.55;;;1.23;;
20972;SDS011;10645;52.370;13.314;2023-08-08T11:09:15;0.88;;;0.75;;
20972;SDS011;10645;52.370;13.314;2023-08-08T11:11:43;2.53;;;1.88;;
20972;SDS011;10645;52.370;13.314;2023-08-08T11:16:44;3.10;;;2.30;;
20972;SDS011;10645;52.370;13.314;2023-08-08T11:19:11;1.08;;;0.90;;
20972;SDS011;10645;52.370;13.314;2023-08-08T11:21:39;1.38;;;1.27;;
20972;SDS011;10645;52.370;13.314;2023-08-08T11:24:07;1.05;;;0.98;;
20972;SDS011;10645;52.370;13.314;2023-08-08T11:26:34;3.15;;;1.60;;
20972;SDS011;10645;52.370;13.314;2023-08-08T11:29:01;1.13;;;1.05;;
20972;SDS011;10645;52.370;13.314;2023-08-08T11:31:29;0.98;;;0.93;;
20972;SDS011;10645;52.370;13.314;2023-08-08T11:33:56;1.05;;;0.95;;
20972;SDS011;10645;52.370;13.314;2023-08-08T11:36:24;1.58;;;1.00;;
20972;SDS011;10645;52.370;13.314;2023-08-08T11:38:55;1.23;;;1.13;;
20972;SDS011;10645;52.370;13.314;2023-08-08T11:41:23;1.30;;;1.15;;
20972;SDS011;10645;52.370;13.314;2023-08-08T11:43:50;1.67;;;1.30;;
20972;SDS011;10645;52.370;13.314;2023-08-08T11:46:17;2.25;;;2.08;;
20972;SDS011;10645;52.370;13.314;2023-08-08T11:48:45;7.60;;;1.67;;
20972;SDS011;10645;52.370;13.314;2023-08-08T11:51:13;2.28;;;1.77;;
20972;SDS011;10645;52.370;13.314;2023-08-08T11:53:53;1.60;;;1.50;;
20972;SDS011;10645;52.370;13.314;2023-08-08T11:56:19;1.63;;;1.30;;
20972;SDS011;10645;52.370;13.314;2023-08-08T11:58:47;2.00;;;1.00;;
20972;SDS011;10645;52.370;13.314;2023-08-08T12:01:16;1.70;;;1.05;;
20972;SDS011;10645;52.370;13.314;2023-08-08T12:03:45;0.90;;;0.90;;
20972;SDS011;10645;52.370;13.314;2023-08-08T12:06:15;0.90;;;0.90;;
20972;SDS011;10645;52.370;13.314;2023-08-08T12:08:42;1.88;;;1.40;;
20972;SDS011;10645;52.370;13.314;2023-08-08T12:11:09;0.77;;;0.77;;
20972;SDS011;10645;52.370;13.314;2023-08-08T12:13:36;1.05;;;1.02;;
20972;SDS011;10645;52.370;13.314;2023-08-08T12:16:05;1.58;;;0.80;;
20972;SDS011;10645;52.370;13.314;2023-08-08T12:18:35;1.80;;;1.42;;
20972;SDS011;10645;52.370;13.314;2023-08-08T12:21:05;1.33;;;1.23;;
20972;SDS011;10645;52.370;13.314;2023-08-08T12:23:33;1.83;;;1.52;;
20972;SDS011;10645;52.370;13.314;2023-08-08T12:26:02;1.55;;;1.45;;
20972;SDS011;10645;52.370;13.314;2023-08-08T12:28:28;0.73;;;0.73;;
20972;SDS011;10645;52.370;13.314;2023-08-08T12:30:54;0.55;;;0.55;;
20972;SDS011;10645;52.370;13.314;2023-08-08T12:33:21;0.90;;;0.90;;
20972;SDS011;10645;52.370;13.314;2023-08-08T12:35:47;0.80;;;0.68;;
20972;SDS011;10645;52.370;13.314;2023-08-08T12:38:14;0.70;;;0.70;;
20972;SDS011;10645;52.370;13.314;2023-08-08T12:40:41;0.77;;;0.70;;
20972;SDS011;10645;52.370;13.314;2023-08-08T12:43:08;1.33;;;1.23;;
20972;SDS011;10645;52.370;13.314;2023-08-08T12:45:35;2.67;;;1.52;;
20972;SDS011;10645;52.370;13.314;2023-08-08T12:48:01;0.77;;;0.63;;
20972;SDS011;10645;52.370;13.314;2023-08-08T12:50:27;0.60;;;0.60;;
20972;SDS011;10645;52.370;13.314;2023-08-08T12:52:54;0.80;;;0.73;;
20972;SDS011;10645;52.370;13.314;2023-08-08T12:55:20;1.27;;;0.85;;
20972;SDS011;10645;52.370;13.314;2023-08-08T12:57:46;1.08;;;1.08;;
20972;SDS011;10645;52.370;13.314;2023-08-08T13:00:12;0.82;;;0.82;;
20972;SDS011;10645;52.370;13.314;2023-08-08T13:02:39;1.95;;;0.75;;
20972;SDS011;10645;52.370;13.314;2023-08-08T13:05:05;1.85;;;1.50;;
20972;SDS011;10645;52.370;13.314;2023-08-08T13:07:32;0.55;;;0.55;;
20972;SDS011;10645;52.370;13.314;2023-08-08T13:09:59;1.08;;;0.98;;
20972;SDS011;10645;52.370;13.314;2023-08-08T13:12:25;1.63;;;1.52;;
20972;SDS011;10645;52.370;13.314;2023-08-08T13:14:51;0.68;;;0.68;;
20972;SDS011;10645;52.370;13.314;2023-08-08T13:17:17;1.38;;;1.13;;
20972;SDS011;10645;52.370;13.314;2023-08-08T13:19:43;0.88;;;0.80;;
20972;SDS011;10645;52.370;13.314;2023-08-08T13:22:09;0.68;;;0.68;;
20972;SDS011;10645;52.370;13.314;2023-08-08T13:24:35;2.22;;;1.02;;
20972;SDS011;10645;52.370;13.314;2023-08-08T13:27:01;1.25;;;0.95;;
20972;SDS011;10645;52.370;13.314;2023-08-08T13:29:27;0.90;;;0.90;;
20972;SDS011;10645;52.370;13.314;2023-08-08T13:31:54;0.80;;;0.80;;
20972;SDS011;10645;52.370;13.314;2023-08-08T13:34:20;2.10;;;1.00;;
20972;SDS011;10645;52.370;13.314;2023-08-08T13:36:46;1.00;;;0.80;;
20972;SDS011;10645;52.370;13.314;2023-08-08T13:39:12;1.95;;;0.77;;
20972;SDS011;10645;52.370;13.314;2023-08-08T13:41:39;0.60;;;0.60;;
20972;SDS011;10645;52.370;13.314;2023-08-08T13:44:05;1.98;;;0.82;;
20972;SDS011;10645;52.370;13.314;2023-08-08T13:46:31;0.90;;;0.90;;
20972;SDS011;10645;52.370;13.314;2023-08-08T13:48:57;2.30;;;1.00;;
20972;SDS011;10645;52.370;13.314;2023-08-08T13:51:23;0.60;;;0.57;;
20972;SDS011;10645;52.370;13.314;2023-08-08T13:53:49;1.25;;;1.00;;
20972;SDS011;10645;52.370;13.314;2023-08-08T13:56:15;0.52;;;0.50;;
20972;SDS011;10645;52.370;13.314;2023-08-08T13:58:43;4.30;;;1.45;;
20972;SDS011;10645;52.370;13.314;2023-08-08T14:01:09;1.17;;;0.75;;
20972;SDS011;10645;52.370;13.314;2023-08-08T14:03:35;0.70;;;0.70;;
20972;SDS011;10645;52.370;13.314;2023-08-08T14:06:01;0.57;;;0.52;;
20972;SDS011;10645;52.370;13.314;2023-08-08T14:08:27;1.08;;;0.50;;
20972;SDS011;10645;52.370;13.314;2023-08-08T14:10:53;2.00;;;1.70;;
20972;SDS011;10645;52.370;13.314;2023-08-08T14:13:19;0.77;;;0.77;;
20972;SDS011;10645;52.370;13.314;2023-08-08T14:15:47;1.58;;;0.80;;
20972;SDS011;10645;52.370;13.314;2023-08-08T14:18:14;1.08;;;0.47;;
20972;SDS011;10645;52.370;13.314;2023-08-08T14:20:40;0.75;;;0.75;;
20972;SDS011;10645;52.370;13.314;2023-08-08T14:23:06;0.82;;;0.82;;
20972;SDS011;10645;52.370;13.314;2023-08-08T14:25:32;1.85;;;1.17;;
20972;SDS011;10645;52.370;13.314;2023-08-08T14:27:58;0.75;;;0.63;;
20972;SDS011;10645;52.370;13.314;2023-08-08T14:30:26;1.38;;;1.10;;
20972;SDS011;10645;52.370;13.314;2023-08-08T14:32:53;0.88;;;0.88;;
20972;SDS011;10645;52.370;13.314;2023-08-08T14:35:19;1.40;;;0.60;;
20972;SDS011;10645;52.370;13.314;2023-08-08T14:37:46;0.93;;;0.93;;